KSSF/SSF METAR and TAF weather

Enter ICAO airport designator
Station Type Date Time Source
KSSF METAR 2021/09/23 23:53 UTC NOAA

KSSF 232353Z 12004KT 10SM CLR 30/05 A2998 RMK AO2 SLP143 T03000050 10333 20294 55009 $


Station Type Date Time Source
KSSF Decoded METAR 2021/09/23 23:53 UTC NOAA

SAN ANTONIO STINSON MUNI, TX, United States (KSSF) 29-20N 098-28W 176M
Sep 23, 2021 - 07:53 PM EDT / 2021.09.23 2353 UTC
Wind: from the ESE (120 degrees) at 5 MPH (4 KT):0
Visibility: 10 mile(s):0
Sky conditions: clear
Temperature: 86.0 F (30.0 C)
Dew Point: 41.0 F (5.0 C)
Relative Humidity: 20%
Pressure (altimeter): 29.98 in. Hg (1015 hPa)
Pressure tendency: 0.03 inches (0.9 hPa) lower than three hours ago
ob: KSSF 232353Z 12004KT 10SM CLR 30/05 A2998 RMK AO2 SLP143 T03000050 10333 20294 55009
cycle: 0

Station Type Date Time Source
KSSF TAF 2021/09/23 18:28 UTC NOAA

TAF KSSF 231726Z 2318/2418 11005KT P6SM FEW250

Example: see airport list